sensor_id;sensor_type;location;lat;lon;timestamp;P1;durP1;ratioP1;P2;durP2;ratioP2
14066;SDS011;7108;42.684;23.350;2023-08-07T00:02:20;136.50;;;66.57;;
14066;SDS011;7108;42.684;23.350;2023-08-07T00:04:45;123.77;;;66.17;;
14066;SDS011;7108;42.684;23.350;2023-08-07T00:07:11;113.17;;;65.33;;
14066;SDS011;7108;42.684;23.350;2023-08-07T00:09:36;104.80;;;63.37;;
14066;SDS011;7108;42.684;23.350;2023-08-07T00:12:02;103.50;;;64.67;;
14066;SDS011;7108;42.684;23.350;2023-08-07T00:14:28;120.73;;;66.10;;
14066;SDS011;7108;42.684;23.350;2023-08-07T00:16:53;130.27;;;67.87;;
14066;SDS011;7108;42.684;23.350;2023-08-07T00:19:19;136.77;;;69.13;;
14066;SDS011;7108;42.684;23.350;2023-08-07T00:21:44;114.30;;;65.93;;
14066;SDS011;7108;42.684;23.350;2023-08-07T00:24:10;109.47;;;64.53;;
14066;SDS011;7108;42.684;23.350;2023-08-07T00:26:35;107.33;;;65.07;;
14066;SDS011;7108;42.684;23.350;2023-08-07T00:29:01;110.93;;;64.07;;
14066;SDS011;7108;42.684;23.350;2023-08-07T00:31:26;133.77;;;66.73;;
14066;SDS011;7108;42.684;23.350;2023-08-07T00:33:55;119.07;;;67.87;;
14066;SDS011;7108;42.684;23.350;2023-08-07T00:36:21;138.27;;;68.60;;
14066;SDS011;7108;42.684;23.350;2023-08-07T00:38:46;119.70;;;68.10;;
14066;SDS011;7108;42.684;23.350;2023-08-07T00:41:12;109.00;;;65.10;;
14066;SDS011;7108;42.684;23.350;2023-08-07T00:43:37;106.73;;;66.70;;
14066;SDS011;7108;42.684;23.350;2023-08-07T00:46:03;107.60;;;66.97;;
14066;SDS011;7108;42.684;23.350;2023-08-07T00:48:28;121.37;;;67.33;;
14066;SDS011;7108;42.684;23.350;2023-08-07T00:50:54;120.00;;;67.93;;
14066;SDS011;7108;42.684;23.350;2023-08-07T00:53:21;143.63;;;69.23;;
14066;SDS011;7108;42.684;23.350;2023-08-07T00:55:47;121.67;;;66.43;;
14066;SDS011;7108;42.684;23.350;2023-08-07T00:58:13;112.60;;;67.43;;
14066;SDS011;7108;42.684;23.350;2023-08-07T01:00:39;105.43;;;66.40;;
14066;SDS011;7108;42.684;23.350;2023-08-07T01:03:06;111.93;;;65.13;;
14066;SDS011;7108;42.684;23.350;2023-08-07T01:05:32;115.10;;;64.47;;
14066;SDS011;7108;42.684;23.350;2023-08-07T01:07:58;113.93;;;65.30;;
14066;SDS011;7108;42.684;23.350;2023-08-07T01:10:25;122.73;;;64.97;;
14066;SDS011;7108;42.684;23.350;2023-08-07T01:13:10;110.07;;;65.17;;
14066;SDS011;7108;42.684;23.350;2023-08-07T01:15:45;108.93;;;64.20;;
14066;SDS011;7108;42.684;23.350;2023-08-07T01:18:13;113.03;;;65.83;;
14066;SDS011;7108;42.684;23.350;2023-08-07T01:20:39;102.23;;;65.13;;
14066;SDS011;7108;42.684;23.350;2023-08-07T01:23:05;105.67;;;64.60;;
14066;SDS011;7108;42.684;23.350;2023-08-07T01:25:30;132.97;;;66.93;;
14066;SDS011;7108;42.684;23.350;2023-08-07T01:28:00;120.17;;;65.93;;
14066;SDS011;7108;42.684;23.350;2023-08-07T01:30:33;132.80;;;67.90;;
14066;SDS011;7108;42.684;23.350;2023-08-07T01:35:49;105.87;;;64.70;;
14066;SDS011;7108;42.684;23.350;2023-08-07T01:38:18;132.67;;;70.30;;
14066;SDS011;7108;42.684;23.350;2023-08-07T01:40:46;119.40;;;68.03;;
14066;SDS011;7108;42.684;23.350;2023-08-07T01:43:13;104.40;;;64.10;;
14066;SDS011;7108;42.684;23.350;2023-08-07T01:45:38;105.83;;;65.70;;
14066;SDS011;7108;42.684;23.350;2023-08-07T01:48:04;105.77;;;66.43;;
14066;SDS011;7108;42.684;23.350;2023-08-07T01:50:29;140.83;;;69.97;;
14066;SDS011;7108;42.684;23.350;2023-08-07T01:52:56;119.20;;;67.83;;
14066;SDS011;7108;42.684;23.350;2023-08-07T01:55:22;126.83;;;68.73;;
14066;SDS011;7108;42.684;23.350;2023-08-07T01:57:47;110.80;;;66.53;;
14066;SDS011;7108;42.684;23.350;2023-08-07T02:00:13;106.13;;;65.03;;
14066;SDS011;7108;42.684;23.350;2023-08-07T02:02:38;114.43;;;68.23;;
14066;SDS011;7108;42.684;23.350;2023-08-07T02:05:04;110.33;;;67.97;;
14066;SDS011;7108;42.684;23.350;2023-08-07T02:07:30;136.27;;;68.73;;
14066;SDS011;7108;42.684;23.350;2023-08-07T02:09:56;119.20;;;69.17;;
14066;SDS011;7108;42.684;23.350;2023-08-07T02:12:22;136.70;;;70.73;;
14066;SDS011;7108;42.684;23.350;2023-08-07T02:14:49;116.57;;;68.33;;
14066;SDS011;7108;42.684;23.350;2023-08-07T02:17:15;113.37;;;68.30;;
14066;SDS011;7108;42.684;23.350;2023-08-07T02:19:40;103.07;;;66.30;;
14066;SDS011;7108;42.684;23.350;2023-08-07T02:22:05;105.90;;;66.93;;
14066;SDS011;7108;42.684;23.350;2023-08-07T02:24:31;132.83;;;70.10;;
14066;SDS011;7108;42.684;23.350;2023-08-07T02:26:56;119.70;;;67.37;;
14066;SDS011;7108;42.684;23.350;2023-08-07T02:29:22;120.73;;;66.90;;
14066;SDS011;7108;42.684;23.350;2023-08-07T02:31:47;110.40;;;66.83;;
14066;SDS011;7108;42.684;23.350;2023-08-07T02:34:12;108.03;;;65.70;;
14066;SDS011;7108;42.684;23.350;2023-08-07T02:36:38;110.53;;;66.97;;
14066;SDS011;7108;42.684;23.350;2023-08-07T02:39:04;109.17;;;66.77;;
14066;SDS011;7108;42.684;23.350;2023-08-07T02:41:29;137.30;;;68.93;;
14066;SDS011;7108;42.684;23.350;2023-08-07T02:43:56;115.60;;;67.47;;
14066;SDS011;7108;42.684;23.350;2023-08-07T02:46:21;136.00;;;69.53;;
14066;SDS011;7108;42.684;23.350;2023-08-07T02:48:47;113.80;;;66.87;;
14066;SDS011;7108;42.684;23.350;2023-08-07T02:51:12;101.50;;;64.80;;
14066;SDS011;7108;42.684;23.350;2023-08-07T02:53:37;121.40;;;68.93;;
14066;SDS011;7108;42.684;23.350;2023-08-07T02:56:03;120.97;;;69.20;;
14066;SDS011;7108;42.684;23.350;2023-08-07T02:58:28;131.40;;;67.93;;
14066;SDS011;7108;42.684;23.350;2023-08-07T03:00:54;120.33;;;67.80;;
14066;SDS011;7108;42.684;23.350;2023-08-07T03:03:20;106.57;;;66.80;;
14066;SDS011;7108;42.684;23.350;2023-08-07T03:05:49;100.53;;;62.80;;
14066;SDS011;7108;42.684;23.350;2023-08-07T03:08:15;105.63;;;66.57;;
14066;SDS011;7108;42.684;23.350;2023-08-07T03:10:41;104.50;;;66.07;;
14066;SDS011;7108;42.684;23.350;2023-08-07T03:13:06;115.27;;;66.17;;
14066;SDS011;7108;42.684;23.350;2023-08-07T03:15:32;135.27;;;70.43;;
14066;SDS011;7108;42.684;23.350;2023-08-07T03:17:57;115.47;;;67.97;;
14066;SDS011;7108;42.684;23.350;2023-08-07T03:20:22;127.43;;;68.97;;
14066;SDS011;7108;42.684;23.350;2023-08-07T03:22:48;105.20;;;66.27;;
14066;SDS011;7108;42.684;23.350;2023-08-07T03:25:13;101.90;;;64.40;;
14066;SDS011;7108;42.684;23.350;2023-08-07T03:27:39;111.10;;;64.97;;
14066;SDS011;7108;42.684;23.350;2023-08-07T03:30:04;116.47;;;68.77;;
14066;SDS011;7108;42.684;23.350;2023-08-07T03:32:30;141.23;;;70.37;;
14066;SDS011;7108;42.684;23.350;2023-08-07T03:34:56;121.83;;;68.50;;
14066;SDS011;7108;42.684;23.350;2023-08-07T03:37:21;115.10;;;66.93;;
14066;SDS011;7108;42.684;23.350;2023-08-07T03:39:46;107.67;;;67.33;;
14066;SDS011;7108;42.684;23.350;2023-08-07T03:42:13;105.10;;;65.67;;
14066;SDS011;7108;42.684;23.350;2023-08-07T03:44:40;126.57;;;68.27;;
14066;SDS011;7108;42.684;23.350;2023-08-07T03:47:05;119.97;;;67.80;;
14066;SDS011;7108;42.684;23.350;2023-08-07T03:49:30;127.33;;;66.97;;
14066;SDS011;7108;42.684;23.350;2023-08-07T03:51:56;112.87;;;67.83;;
14066;SDS011;7108;42.684;23.350;2023-08-07T03:54:24;107.47;;;68.33;;
14066;SDS011;7108;42.684;23.350;2023-08-07T03:56:49;113.00;;;66.73;;
14066;SDS011;7108;42.684;23.350;2023-08-07T03:59:16;115.47;;;66.80;;
14066;SDS011;7108;42.684;23.350;2023-08-07T04:01:41;121.90;;;65.90;;
14066;SDS011;7108;42.684;23.350;2023-08-07T04:04:07;118.30;;;68.17;;
14066;SDS011;7108;42.684;23.350;2023-08-07T04:06:32;132.90;;;69.67;;
14066;SDS011;7108;42.684;23.350;2023-08-07T04:08:58;133.53;;;71.10;;
14066;SDS011;7108;42.684;23.350;2023-08-07T04:11:23;124.77;;;67.27;;
14066;SDS011;7108;42.684;23.350;2023-08-07T04:13:49;105.60;;;65.80;;
14066;SDS011;7108;42.684;23.350;2023-08-07T04:16:14;106.90;;;65.77;;
14066;SDS011;7108;42.684;23.350;2023-08-07T04:18:40;118.23;;;67.00;;
14066;SDS011;7108;42.684;23.350;2023-08-07T04:21:06;125.80;;;66.87;;
14066;SDS011;7108;42.684;23.350;2023-08-07T04:23:31;123.73;;;67.17;;
14066;SDS011;7108;42.684;23.350;2023-08-07T04:25:57;106.43;;;64.23;;
14066;SDS011;7108;42.684;23.350;2023-08-07T04:28:23;120.27;;;65.77;;
14066;SDS011;7108;42.684;23.350;2023-08-07T04:30:49;113.77;;;69.00;;
14066;SDS011;7108;42.684;23.350;2023-08-07T04:33:15;106.20;;;65.70;;
14066;SDS011;7108;42.684;23.350;2023-08-07T04:35:41;121.33;;;67.30;;
14066;SDS011;7108;42.684;23.350;2023-08-07T04:38:06;116.53;;;67.07;;
14066;SDS011;7108;42.684;23.350;2023-08-07T04:40:32;145.17;;;68.57;;
14066;SDS011;7108;42.684;23.350;2023-08-07T04:42:57;119.33;;;67.43;;
14066;SDS011;7108;42.684;23.350;2023-08-07T04:45:23;106.43;;;66.33;;
14066;SDS011;7108;42.684;23.350;2023-08-07T04:47:48;104.27;;;66.80;;
14066;SDS011;7108;42.684;23.350;2023-08-07T04:50:13;115.77;;;66.90;;
14066;SDS011;7108;42.684;23.350;2023-08-07T04:52:39;124.83;;;68.90;;
14066;SDS011;7108;42.684;23.350;2023-08-07T04:55:04;123.67;;;69.73;;
14066;SDS011;7108;42.684;23.350;2023-08-07T04:57:30;134.40;;;67.00;;
14066;SDS011;7108;42.684;23.350;2023-08-07T04:59:55;108.03;;;66.10;;
14066;SDS011;7108;42.684;23.350;2023-08-07T05:02:21;108.87;;;64.43;;
14066;SDS011;7108;42.684;23.350;2023-08-07T05:04:46;119.83;;;66.07;;
14066;SDS011;7108;42.684;23.350;2023-08-07T05:07:12;126.40;;;66.97;;
14066;SDS011;7108;42.684;23.350;2023-08-07T05:09:37;133.97;;;66.73;;
14066;SDS011;7108;42.684;23.350;2023-08-07T05:12:03;108.40;;;66.43;;
14066;SDS011;7108;42.684;23.350;2023-08-07T05:14:30;134.97;;;67.63;;
14066;SDS011;7108;42.684;23.350;2023-08-07T05:16:55;101.87;;;63.57;;
14066;SDS011;7108;42.684;23.350;2023-08-07T05:19:21;107.00;;;64.10;;
14066;SDS011;7108;42.684;23.350;2023-08-07T05:21:47;120.27;;;67.17;;
14066;SDS011;7108;42.684;23.350;2023-08-07T05:24:15;122.33;;;67.97;;
14066;SDS011;7108;42.684;23.350;2023-08-07T05:26:41;124.77;;;67.47;;
14066;SDS011;7108;42.684;23.350;2023-08-07T05:29:07;130.13;;;69.57;;
14066;SDS011;7108;42.684;23.350;2023-08-07T05:31:33;142.37;;;69.30;;
14066;SDS011;7108;42.684;23.350;2023-08-07T05:33:58;107.00;;;66.10;;
14066;SDS011;7108;42.684;23.350;2023-08-07T05:36:24;120.53;;;65.77;;
14066;SDS011;7108;42.684;23.350;2023-08-07T05:38:49;108.80;;;64.83;;
14066;SDS011;7108;42.684;23.350;2023-08-07T05:41:15;104.70;;;61.13;;
14066;SDS011;7108;42.684;23.350;2023-08-07T05:43:41;115.60;;;64.83;;
14066;SDS011;7108;42.684;23.350;2023-08-07T05:46:06;121.27;;;67.67;;
14066;SDS011;7108;42.684;23.350;2023-08-07T05:48:32;123.80;;;66.73;;
14066;SDS011;7108;42.684;23.350;2023-08-07T05:50:57;113.10;;;67.13;;
14066;SDS011;7108;42.684;23.350;2023-08-07T05:53:23;114.33;;;64.07;;
14066;SDS011;7108;42.684;23.350;2023-08-07T05:55:48;118.17;;;66.70;;
14066;SDS011;7108;42.684;23.350;2023-08-07T05:58:13;119.87;;;65.07;;
14066;SDS011;7108;42.684;23.350;2023-08-07T06:00:39;123.50;;;64.90;;
14066;SDS011;7108;42.684;23.350;2023-08-07T06:03:04;118.03;;;63.47;;
14066;SDS011;7108;42.684;23.350;2023-08-07T06:05:30;150.07;;;69.53;;
14066;SDS011;7108;42.684;23.350;2023-08-07T06:07:55;109.60;;;67.00;;
14066;SDS011;7108;42.684;23.350;2023-08-07T06:10:20;118.10;;;64.80;;
14066;SDS011;7108;42.684;23.350;2023-08-07T06:12:46;124.77;;;67.23;;
14066;SDS011;7108;42.684;23.350;2023-08-07T06:15:11;120.30;;;66.93;;
14066;SDS011;7108;42.684;23.350;2023-08-07T06:17:37;138.00;;;67.37;;
14066;SDS011;7108;42.684;23.350;2023-08-07T06:20:04;111.33;;;64.33;;
14066;SDS011;7108;42.684;23.350;2023-08-07T06:22:34;122.53;;;63.83;;
14066;SDS011;7108;42.684;23.350;2023-08-07T06:24:59;114.77;;;65.87;;
14066;SDS011;7108;42.684;23.350;2023-08-07T06:27:25;114.20;;;65.70;;
14066;SDS011;7108;42.684;23.350;2023-08-07T06:29:50;122.70;;;66.53;;
14066;SDS011;7108;42.684;23.350;2023-08-07T06:32:16;116.50;;;66.23;;
14066;SDS011;7108;42.684;23.350;2023-08-07T06:34:43;119.57;;;66.07;;
14066;SDS011;7108;42.684;23.350;2023-08-07T06:37:08;137.50;;;67.33;;
14066;SDS011;7108;42.684;23.350;2023-08-07T06:39:34;120.00;;;61.50;;
14066;SDS011;7108;42.684;23.350;2023-08-07T06:41:59;109.60;;;61.83;;
14066;SDS011;7108;42.684;23.350;2023-08-07T06:44:25;120.83;;;64.77;;
14066;SDS011;7108;42.684;23.350;2023-08-07T06:46:51;125.47;;;64.03;;
14066;SDS011;7108;42.684;23.350;2023-08-07T06:49:17;119.60;;;62.30;;
14066;SDS011;7108;42.684;23.350;2023-08-07T06:51:43;112.87;;;60.67;;
14066;SDS011;7108;42.684;23.350;2023-08-07T06:54:08;113.93;;;61.50;;
14066;SDS011;7108;42.684;23.350;2023-08-07T06:56:33;129.50;;;62.80;;
14066;SDS011;7108;42.684;23.350;2023-08-07T06:58:59;109.27;;;63.17;;
14066;SDS011;7108;42.684;23.350;2023-08-07T07:01:24;126.93;;;62.97;;
14066;SDS011;7108;42.684;23.350;2023-08-07T07:03:50;119.03;;;63.60;;
14066;SDS011;7108;42.684;23.350;2023-08-07T07:06:17;118.90;;;63.73;;
14066;SDS011;7108;42.684;23.350;2023-08-07T07:08:46;120.47;;;64.30;;
14066;SDS011;7108;42.684;23.350;2023-08-07T07:11:12;124.27;;;66.80;;
14066;SDS011;7108;42.684;23.350;2023-08-07T07:13:37;120.97;;;62.30;;
14066;SDS011;7108;42.684;23.350;2023-08-07T07:16:02;123.43;;;64.07;;
14066;SDS011;7108;42.684;23.350;2023-08-07T07:18:28;128.43;;;64.33;;
14066;SDS011;7108;42.684;23.350;2023-08-07T07:20:59;124.47;;;64.60;;
14066;SDS011;7108;42.684;23.350;2023-08-07T07:23:25;135.43;;;66.00;;
14066;SDS011;7108;42.684;23.350;2023-08-07T07:25:51;115.50;;;61.77;;
14066;SDS011;7108;42.684;23.350;2023-08-07T07:28:17;116.90;;;61.27;;
14066;SDS011;7108;42.684;23.350;2023-08-07T07:30:42;119.00;;;62.37;;
14066;SDS011;7108;42.684;23.350;2023-08-07T07:33:08;116.13;;;61.07;;
14066;SDS011;7108;42.684;23.350;2023-08-07T07:35:37;125.20;;;62.90;;
14066;SDS011;7108;42.684;23.350;2023-08-07T07:38:04;112.83;;;61.83;;
14066;SDS011;7108;42.684;23.350;2023-08-07T07:40:29;125.93;;;62.67;;
14066;SDS011;7108;42.684;23.350;2023-08-07T07:42:55;126.07;;;63.80;;
14066;SDS011;7108;42.684;23.350;2023-08-07T07:45:20;120.97;;;63.67;;
14066;SDS011;7108;42.684;23.350;2023-08-07T07:47:45;119.07;;;63.23;;
14066;SDS011;7108;42.684;23.350;2023-08-07T07:50:11;109.83;;;60.77;;
14066;SDS011;7108;42.684;23.350;2023-08-07T07:52:38;134.03;;;63.70;;
14066;SDS011;7108;42.684;23.350;2023-08-07T07:55:03;109.70;;;61.20;;
14066;SDS011;7108;42.684;23.350;2023-08-07T07:57:30;107.40;;;59.67;;
14066;SDS011;7108;42.684;23.350;2023-08-07T07:59:55;118.17;;;62.10;;
14066;SDS011;7108;42.684;23.350;2023-08-07T08:02:21;118.80;;;63.03;;
14066;SDS011;7108;42.684;23.350;2023-08-07T08:04:47;124.60;;;63.07;;
14066;SDS011;7108;42.684;23.350;2023-08-07T08:07:13;121.47;;;61.47;;
14066;SDS011;7108;42.684;23.350;2023-08-07T08:09:38;126.00;;;61.87;;
14066;SDS011;7108;42.684;23.350;2023-08-07T08:12:04;110.07;;;60.93;;
14066;SDS011;7108;42.684;23.350;2023-08-07T08:14:29;134.57;;;63.80;;
14066;SDS011;7108;42.684;23.350;2023-08-07T08:16:55;127.23;;;62.73;;
14066;SDS011;7108;42.684;23.350;2023-08-07T08:19:20;123.63;;;62.60;;
14066;SDS011;7108;42.684;23.350;2023-08-07T08:21:46;120.47;;;62.27;;
14066;SDS011;7108;42.684;23.350;2023-08-07T08:24:11;109.40;;;60.27;;
14066;SDS011;7108;42.684;23.350;2023-08-07T08:26:36;126.80;;;61.77;;
14066;SDS011;7108;42.684;23.350;2023-08-07T08:29:02;115.93;;;62.33;;
14066;SDS011;7108;42.684;23.350;2023-08-07T08:31:27;138.07;;;63.90;;
14066;SDS011;7108;42.684;23.350;2023-08-07T08:33:53;117.47;;;61.50;;
14066;SDS011;7108;42.684;23.350;2023-08-07T08:36:18;124.23;;;61.57;;
14066;SDS011;7108;42.684;23.350;2023-08-07T08:38:44;113.97;;;59.83;;
14066;SDS011;7108;42.684;23.350;2023-08-07T08:41:11;115.20;;;60.20;;
14066;SDS011;7108;42.684;23.350;2023-08-07T08:43:37;127.97;;;60.90;;
14066;SDS011;7108;42.684;23.350;2023-08-07T08:46:04;109.40;;;59.03;;
14066;SDS011;7108;42.684;23.350;2023-08-07T08:48:30;145.43;;;62.27;;
14066;SDS011;7108;42.684;23.350;2023-08-07T08:51:03;123.80;;;59.67;;
14066;SDS011;7108;42.684;23.350;2023-08-07T08:53:30;124.87;;;59.93;;
14066;SDS011;7108;42.684;23.350;2023-08-07T08:55:57;121.23;;;61.50;;
14066;SDS011;7108;42.684;23.350;2023-08-07T08:58:22;114.13;;;59.57;;
14066;SDS011;7108;42.684;23.350;2023-08-07T09:00:48;118.47;;;60.70;;
14066;SDS011;7108;42.684;23.350;2023-08-07T09:03:15;111.40;;;60.37;;
14066;SDS011;7108;42.684;23.350;2023-08-07T09:05:42;125.60;;;60.93;;
14066;SDS011;7108;42.684;23.350;2023-08-07T09:08:08;109.73;;;60.40;;
14066;SDS011;7108;42.684;23.350;2023-08-07T09:10:35;139.37;;;63.30;;
14066;SDS011;7108;42.684;23.350;2023-08-07T09:13:02;113.83;;;61.53;;
14066;SDS011;7108;42.684;23.350;2023-08-07T09:15:31;136.17;;;62.20;;
14066;SDS011;7108;42.684;23.350;2023-08-07T09:17:58;121.67;;;62.30;;
14066;SDS011;7108;42.684;23.350;2023-08-07T09:20:24;117.83;;;60.37;;
14066;SDS011;7108;42.684;23.350;2023-08-07T09:22:50;122.13;;;60.77;;
14066;SDS011;7108;42.684;23.350;2023-08-07T09:25:32;111.17;;;59.03;;
14066;SDS011;7108;42.684;23.350;2023-08-07T09:28:01;123.23;;;61.83;;
14066;SDS011;7108;42.684;23.350;2023-08-07T09:30:29;135.47;;;61.23;;
14066;SDS011;7108;42.684;23.350;2023-08-07T09:32:58;125.87;;;60.43;;
14066;SDS011;7108;42.684;23.350;2023-08-07T09:35:25;119.47;;;61.27;;
14066;SDS011;7108;42.684;23.350;2023-08-07T09:37:51;117.27;;;60.97;;
14066;SDS011;7108;42.684;23.350;2023-08-07T09:40:17;109.20;;;58.97;;
14066;SDS011;7108;42.684;23.350;2023-08-07T09:42:43;132.73;;;60.50;;
14066;SDS011;7108;42.684;23.350;2023-08-07T09:45:21;116.43;;;59.93;;
14066;SDS011;7108;42.684;23.350;2023-08-07T09:48:03;115.53;;;59.27;;
14066;SDS011;7108;42.684;23.350;2023-08-07T09:50:31;141.30;;;62.23;;
14066;SDS011;7108;42.684;23.350;2023-08-07T09:52:57;141.00;;;63.33;;
14066;SDS011;7108;42.684;23.350;2023-08-07T09:55:23;122.37;;;60.80;;
14066;SDS011;7108;42.684;23.350;2023-08-07T09:57:49;138.70;;;62.40;;
14066;SDS011;7108;42.684;23.350;2023-08-07T10:00:15;114.73;;;60.63;;
14066;SDS011;7108;42.684;23.350;2023-08-07T10:02:45;129.20;;;60.53;;
14066;SDS011;7108;42.684;23.350;2023-08-07T10:05:12;112.50;;;58.70;;
14066;SDS011;7108;42.684;23.350;2023-08-07T10:07:38;140.97;;;62.67;;
14066;SDS011;7108;42.684;23.350;2023-08-07T10:10:04;119.83;;;59.80;;
14066;SDS011;7108;42.684;23.350;2023-08-07T10:12:32;143.43;;;61.60;;
14066;SDS011;7108;42.684;23.350;2023-08-07T10:15:01;118.67;;;59.47;;
14066;SDS011;7108;42.684;23.350;2023-08-07T10:17:27;120.13;;;60.03;;
14066;SDS011;7108;42.684;23.350;2023-08-07T10:19:53;113.10;;;58.40;;
14066;SDS011;7108;42.684;23.350;2023-08-07T10:22:19;110.70;;;57.90;;
14066;SDS011;7108;42.684;23.350;2023-08-07T10:24:46;138.23;;;60.27;;
14066;SDS011;7108;42.684;23.350;2023-08-07T10:27:13;122.53;;;61.47;;
14066;SDS011;7108;42.684;23.350;2023-08-07T10:29:41;130.87;;;61.27;;
14066;SDS011;7108;42.684;23.350;2023-08-07T10:32:09;121.63;;;60.37;;
14066;SDS011;7108;42.684;23.350;2023-08-07T10:34:38;142.00;;;62.13;;
14066;SDS011;7108;42.684;23.350;2023-08-07T10:37:07;132.83;;;63.03;;
14066;SDS011;7108;42.684;23.350;2023-08-07T10:39:33;144.20;;;63.03;;
14066;SDS011;7108;42.684;23.350;2023-08-07T10:41:59;111.47;;;58.27;;
14066;SDS011;7108;42.684;23.350;2023-08-07T10:44:25;109.17;;;57.47;;
14066;SDS011;7108;42.684;23.350;2023-08-07T10:46:56;125.20;;;61.87;;
14066;SDS011;7108;42.684;23.350;2023-08-07T10:49:40;111.73;;;57.67;;
14066;SDS011;7108;42.684;23.350;2023-08-07T10:54:37;149.13;;;63.70;;
14066;SDS011;7108;42.684;23.350;2023-08-07T10:57:10;129.03;;;60.63;;
14066;SDS011;7108;42.684;23.350;2023-08-07T11:02:24;110.67;;;58.60;;
14066;SDS011;7108;42.684;23.350;2023-08-07T11:04:51;110.50;;;59.27;;
14066;SDS011;7108;42.684;23.350;2023-08-07T11:07:27;122.67;;;60.50;;
14066;SDS011;7108;42.684;23.350;2023-08-07T11:09:54;110.77;;;59.43;;
14066;SDS011;7108;42.684;23.350;2023-08-07T11:12:21;108.13;;;58.87;;
14066;SDS011;7108;42.684;23.350;2023-08-07T11:14:49;114.10;;;59.33;;
14066;SDS011;7108;42.684;23.350;2023-08-07T11:17:14;116.53;;;59.20;;
14066;SDS011;7108;42.684;23.350;2023-08-07T11:19:41;126.77;;;60.43;;
14066;SDS011;7108;42.684;23.350;2023-08-07T11:22:06;118.30;;;60.43;;
14066;SDS011;7108;42.684;23.350;2023-08-07T11:24:32;143.87;;;62.73;;
14066;SDS011;7108;42.684;23.350;2023-08-07T11:26:58;114.07;;;59.90;;
14066;SDS011;7108;42.684;23.350;2023-08-07T11:29:24;107.43;;;58.67;;
14066;SDS011;7108;42.684;23.350;2023-08-07T11:31:50;114.73;;;59.73;;
14066;SDS011;7108;42.684;23.350;2023-08-07T11:34:19;118.07;;;60.50;;
14066;SDS011;7108;42.684;23.350;2023-08-07T11:36:44;144.70;;;62.73;;
14066;SDS011;7108;42.684;23.350;2023-08-07T11:39:11;127.53;;;61.13;;
14066;SDS011;7108;42.684;23.350;2023-08-07T11:41:37;137.67;;;62.40;;
14066;SDS011;7108;42.684;23.350;2023-08-07T11:44:03;125.50;;;61.00;;
14066;SDS011;7108;42.684;23.350;2023-08-07T11:46:29;113.97;;;58.30;;
14066;SDS011;7108;42.684;23.350;2023-08-07T11:48:55;115.90;;;59.00;;
14066;SDS011;7108;42.684;23.350;2023-08-07T11:51:21;112.03;;;60.07;;
14066;SDS011;7108;42.684;23.350;2023-08-07T11:53:47;114.60;;;59.70;;
14066;SDS011;7108;42.684;23.350;2023-08-07T11:56:13;121.40;;;60.57;;
14066;SDS011;7108;42.684;23.350;2023-08-07T11:58:40;142.10;;;62.53;;
14066;SDS011;7108;42.684;23.350;2023-08-07T12:01:23;117.40;;;59.13;;
14066;SDS011;7108;42.684;23.350;2023-08-07T12:03:55;110.13;;;58.47;;
14066;SDS011;7108;42.684;23.350;2023-08-07T12:06:22;109.60;;;59.07;;
14066;SDS011;7108;42.684;23.350;2023-08-07T12:08:49;115.80;;;59.07;;
14066;SDS011;7108;42.684;23.350;2023-08-07T12:11:20;126.20;;;60.00;;
14066;SDS011;7108;42.684;23.350;2023-08-07T12:13:46;136.87;;;61.50;;
14066;SDS011;7108;42.684;23.350;2023-08-07T12:16:13;113.87;;;58.87;;
14066;SDS011;7108;42.684;23.350;2023-08-07T12:18:43;138.77;;;62.60;;
14066;SDS011;7108;42.684;23.350;2023-08-07T12:21:16;127.93;;;62.13;;
14066;SDS011;7108;42.684;23.350;2023-08-07T12:23:51;107.43;;;58.97;;
14066;SDS011;7108;42.684;23.350;2023-08-07T12:26:19;119.43;;;60.97;;
14066;SDS011;7108;42.684;23.350;2023-08-07T12:28:44;122.40;;;60.13;;
14066;SDS011;7108;42.684;23.350;2023-08-07T12:31:10;129.90;;;61.10;;
14066;SDS011;7108;42.684;23.350;2023-08-07T12:33:35;140.83;;;62.10;;
14066;SDS011;7108;42.684;23.350;2023-08-07T12:36:01;111.03;;;59.77;;
14066;SDS011;7108;42.684;23.350;2023-08-07T12:38:27;110.80;;;60.13;;
14066;SDS011;7108;42.684;23.350;2023-08-07T12:40:53;122.50;;;61.87;;
14066;SDS011;7108;42.684;23.350;2023-08-07T12:43:19;128.07;;;62.40;;
14066;SDS011;7108;42.684;23.350;2023-08-07T12:45:44;139.13;;;62.10;;
14066;SDS011;7108;42.684;23.350;2023-08-07T12:48:10;120.30;;;60.60;;
14066;SDS011;7108;42.684;23.350;2023-08-07T12:50:36;138.67;;;62.60;;
14066;SDS011;7108;42.684;23.350;2023-08-07T12:53:01;109.83;;;59.10;;
14066;SDS011;7108;42.684;23.350;2023-08-07T12:55:27;114.53;;;60.00;;
14066;SDS011;7108;42.684;23.350;2023-08-07T12:57:54;111.27;;;59.90;;
14066;SDS011;7108;42.684;23.350;2023-08-07T13:00:20;119.43;;;60.73;;
14066;SDS011;7108;42.684;23.350;2023-08-07T13:02:46;136.93;;;62.40;;
14066;SDS011;7108;42.684;23.350;2023-08-07T13:05:13;136.87;;;63.90;;
14066;SDS011;7108;42.684;23.350;2023-08-07T13:07:40;142.93;;;62.80;;
14066;SDS011;7108;42.684;23.350;2023-08-07T13:10:07;116.83;;;60.57;;
14066;SDS011;7108;42.684;23.350;2023-08-07T13:12:37;127.77;;;61.70;;
14066;SDS011;7108;42.684;23.350;2023-08-07T13:15:04;120.67;;;60.40;;
14066;SDS011;7108;42.684;23.350;2023-08-07T13:17:30;126.77;;;61.43;;
14066;SDS011;7108;42.684;23.350;2023-08-07T13:19:57;114.07;;;60.10;;
14066;SDS011;7108;42.684;23.350;2023-08-07T13:22:24;111.80;;;59.33;;
14066;SDS011;7108;42.684;23.350;2023-08-07T13:24:49;131.17;;;62.13;;
14066;SDS011;7108;42.684;23.350;2023-08-07T13:27:14;130.07;;;60.90;;
14066;SDS011;7108;42.684;23.350;2023-08-07T13:29:40;130.50;;;62.00;;
14066;SDS011;7108;42.684;23.350;2023-08-07T13:32:05;110.63;;;60.07;;
14066;SDS011;7108;42.684;23.350;2023-08-07T13:34:37;134.57;;;61.27;;
14066;SDS011;7108;42.684;23.350;2023-08-07T13:37:04;115.03;;;61.30;;
14066;SDS011;7108;42.684;23.350;2023-08-07T13:39:30;130.50;;;65.30;;
14066;SDS011;7108;42.684;23.350;2023-08-07T13:41:56;121.97;;;63.20;;
14066;SDS011;7108;42.684;23.350;2023-08-07T13:44:22;128.67;;;65.33;;
14066;SDS011;7108;42.684;23.350;2023-08-07T13:46:47;118.80;;;64.03;;
14066;SDS011;7108;42.684;23.350;2023-08-07T13:49:13;144.97;;;65.80;;
14066;SDS011;7108;42.684;23.350;2023-08-07T13:51:40;142.20;;;67.30;;
14066;SDS011;7108;42.684;23.350;2023-08-07T13:54:06;122.97;;;66.67;;
14066;SDS011;7108;42.684;23.350;2023-08-07T13:56:31;145.67;;;69.60;;
14066;SDS011;7108;42.684;23.350;2023-08-07T13:58:56;133.60;;;68.73;;
14066;SDS011;7108;42.684;23.350;2023-08-07T14:01:22;135.63;;;70.10;;
14066;SDS011;7108;42.684;23.350;2023-08-07T14:03:47;135.73;;;67.97;;
14066;SDS011;7108;42.684;23.350;2023-08-07T14:06:12;133.33;;;67.97;;
14066;SDS011;7108;42.684;23.350;2023-08-07T14:08:38;148.63;;;66.87;;
14066;SDS011;7108;42.684;23.350;2023-08-07T14:11:03;122.37;;;65.47;;
14066;SDS011;7108;42.684;23.350;2023-08-07T14:13:29;122.20;;;64.10;;